createdAt,value
2019-04-05T00:00:13.128Z,18.40
2019-04-05T00:01:13.113Z,18.60
2019-04-05T00:02:13.100Z,20.10
2019-04-05T00:03:13.105Z,20.50
2019-04-05T00:04:13.074Z,22.60
2019-04-05T00:05:13.065Z,19.90
2019-04-05T00:06:13.052Z,20.60
2019-04-05T00:07:13.047Z,18.90
2019-04-05T00:08:13.033Z,22.00
2019-04-05T00:09:13.035Z,18.70
2019-04-05T00:10:13.011Z,20.20
2019-04-05T00:11:12.995Z,18.00
2019-04-05T00:12:12.994Z,23.20
2019-04-05T00:13:12.996Z,17.60
2019-04-05T00:14:12.970Z,18.60
2019-04-05T00:15:15.494Z,18.40
2019-04-05T00:16:12.939Z,20.20
2019-04-05T00:17:12.931Z,18.80
2019-04-05T00:18:12.914Z,21.40
2019-04-05T00:19:12.913Z,21.20
2019-04-05T00:20:12.899Z,18.20
2019-04-05T00:21:12.883Z,20.30
2019-04-05T00:22:12.877Z,19.30
2019-04-05T00:23:12.860Z,23.30
2019-04-05T00:24:12.884Z,20.60
2019-04-05T00:25:12.843Z,17.20
2019-04-05T00:26:12.841Z,20.70
2019-04-05T00:27:12.820Z,21.00
2019-04-05T00:28:12.813Z,18.90
2019-04-05T00:29:12.795Z,20.00
2019-04-05T00:30:12.796Z,20.10
2019-04-05T00:31:12.771Z,21.10
2019-04-05T00:32:12.763Z,19.70
2019-04-05T00:33:12.750Z,21.40
2019-04-05T00:34:12.744Z,20.10
2019-04-05T00:35:12.743Z,18.00
2019-04-05T00:36:12.745Z,19.60
2019-04-05T00:37:12.705Z,20.40
2019-04-05T00:38:12.692Z,20.50
2019-04-05T00:39:12.697Z,20.40
2019-04-05T00:40:12.669Z,19.30
2019-04-05T00:41:12.680Z,23.20
2019-04-05T00:42:12.653Z,19.50
2019-04-05T00:43:12.644Z,21.10
2019-04-05T00:44:12.628Z,19.60
2019-04-05T00:45:12.625Z,23.80
2019-04-05T00:46:12.612Z,20.60
2019-04-05T00:47:12.599Z,20.20
2019-04-05T00:48:12.581Z,22.30
2019-04-05T00:49:12.597Z,20.20
2019-04-05T00:50:12.558Z,20.60
2019-04-05T00:51:12.560Z,19.20
2019-04-05T00:52:12.683Z,21.00
2019-04-05T00:53:12.523Z,21.40
2019-04-05T00:54:12.514Z,22.40
2019-04-05T00:55:12.507Z,24.70
2019-04-05T00:56:12.497Z,21.70
2019-04-05T00:57:12.479Z,19.00
2019-04-05T00:58:12.481Z,22.10
2019-04-05T00:59:12.460Z,19.20
2019-04-05T01:00:12.453Z,20.40
2019-04-05T01:01:12.433Z,18.70
2019-04-05T01:02:12.442Z,22.40
2019-04-05T01:03:13.316Z,21.60
2019-04-05T01:04:12.401Z,22.90
2019-04-05T01:05:12.388Z,20.90
2019-04-05T01:06:12.378Z,21.90
2019-04-05T01:07:12.370Z,20.10
2019-04-05T01:08:12.358Z,22.10
2019-04-05T01:09:12.355Z,17.60
2019-04-05T01:10:12.334Z,22.90
2019-04-05T01:11:12.323Z,23.70
2019-04-05T01:12:12.318Z,22.10
2019-04-05T01:13:12.299Z,19.40
2019-04-05T01:14:26.879Z,20.40
2019-04-05T01:15:12.285Z,20.80
2019-04-05T01:16:12.267Z,20.10
2019-04-05T01:17:24.152Z,19.50
2019-04-05T01:18:13.244Z,20.70
2019-04-05T01:19:12.251Z,23.50
2019-04-05T01:20:12.222Z,21.20
2019-04-05T01:21:12.206Z,21.30
2019-04-05T01:22:12.196Z,23.10
2019-04-05T01:23:12.195Z,22.80
2019-04-05T01:24:12.184Z,21.70
2019-04-05T01:25:12.164Z,20.70
2019-04-05T01:26:12.148Z,21.50
2019-04-05T01:27:12.141Z,22.60
2019-04-05T01:28:12.164Z,23.50
2019-04-05T01:29:12.125Z,25.10
2019-04-05T01:30:12.111Z,18.60
2019-04-05T01:31:12.119Z,21.80
2019-04-05T01:32:12.090Z,20.70
2019-04-05T01:33:12.072Z,22.40
2019-04-05T01:34:12.071Z,20.00
2019-04-05T01:35:12.055Z,22.50
2019-04-05T01:36:12.040Z,18.80
2019-04-05T01:37:12.043Z,21.10
2019-04-05T01:38:12.040Z,20.80
2019-04-05T01:39:12.008Z,23.90
2019-04-05T01:40:11.999Z,25.60
2019-04-05T01:41:11.986Z,22.60
2019-04-05T01:42:11.983Z,21.00
2019-04-05T01:43:11.969Z,19.80
2019-04-05T01:44:11.959Z,21.50
2019-04-05T01:45:11.940Z,19.00
2019-04-05T01:46:11.931Z,20.70
2019-04-05T01:47:11.966Z,22.90
2019-04-05T01:48:11.910Z,24.20
2019-04-05T01:49:11.896Z,22.10
2019-04-05T01:50:11.891Z,21.50
2019-04-05T01:51:11.904Z,22.60
2019-04-05T01:52:11.871Z,23.50
2019-04-05T01:53:11.873Z,21.70
2019-04-05T01:54:11.843Z,22.30
2019-04-05T01:55:11.840Z,24.20
2019-04-05T01:56:11.820Z,21.40
2019-04-05T01:57:11.811Z,21.10
2019-04-05T01:58:11.834Z,21.90
2019-04-05T01:59:11.794Z,21.20
2019-04-05T02:00:11.778Z,20.70
2019-04-05T02:01:11.788Z,20.80
2019-04-05T02:02:11.757Z,21.70
2019-04-05T02:03:11.750Z,23.90
2019-04-05T02:04:11.747Z,24.00
2019-04-05T02:05:11.722Z,22.30
2019-04-05T02:06:11.713Z,20.80
2019-04-05T02:07:11.708Z,20.90
2019-04-05T02:08:11.694Z,20.90
2019-04-05T02:09:11.684Z,21.20
2019-04-05T02:10:11.674Z,22.70
2019-04-05T02:11:11.673Z,21.80
2019-04-05T02:12:11.653Z,23.00
2019-04-05T02:13:11.637Z,25.90
2019-04-05T02:14:11.644Z,20.70
2019-04-05T02:15:11.619Z,23.50
2019-04-05T02:16:11.617Z,21.80
2019-04-05T02:17:11.591Z,22.10
2019-04-05T02:18:11.581Z,22.10
2019-04-05T02:19:11.569Z,24.60
2019-04-05T02:20:11.566Z,24.40
2019-04-05T02:21:11.590Z,21.50
2019-04-05T02:22:11.541Z,22.30
2019-04-05T02:23:11.535Z,24.20
2019-04-05T02:24:11.516Z,24.90
2019-04-05T02:25:11.513Z,23.70
2019-04-05T02:26:11.506Z,23.20
2019-04-05T02:27:11.515Z,20.30
2019-04-05T02:28:11.472Z,26.10
2019-04-05T02:29:11.466Z,21.10
2019-04-05T02:30:11.453Z,24.20
2019-04-05T02:31:11.439Z,25.60
2019-04-05T02:32:11.462Z,22.80
2019-04-05T02:33:11.416Z,23.00
2019-04-05T02:34:11.415Z,24.60
2019-04-05T02:35:11.400Z,19.80
2019-04-05T02:36:11.396Z,24.00
2019-04-05T02:37:11.401Z,23.40
2019-04-05T02:38:11.373Z,22.90
2019-04-05T02:39:11.356Z,21.80
2019-04-05T02:40:11.342Z,22.90
2019-04-05T02:41:11.334Z,22.20
2019-04-05T02:42:11.318Z,24.40
2019-04-05T02:43:11.319Z,23.30
2019-04-05T02:44:11.299Z,24.40
2019-04-05T02:45:11.309Z,24.60
2019-04-05T02:46:23.234Z,24.60
2019-04-05T02:47:12.266Z,23.40
2019-04-05T02:48:11.264Z,23.40
2019-04-05T02:49:11.258Z,23.70
2019-04-05T02:50:11.240Z,23.60
2019-04-05T02:51:11.233Z,25.70
2019-04-05T02:52:11.211Z,26.10
2019-04-05T02:53:11.239Z,23.60
2019-04-05T02:54:11.207Z,25.20
2019-04-05T02:55:11.188Z,25.70
2019-04-05T02:56:11.167Z,22.40
2019-04-05T02:57:11.165Z,21.50
2019-04-05T02:58:11.146Z,27.10
2019-04-05T02:59:11.155Z,25.10
2019-04-05T03:00:11.166Z,21.90
2019-04-05T03:01:11.117Z,25.70
2019-04-05T03:02:11.105Z,25.00
2019-04-05T03:03:11.104Z,24.90
2019-04-05T03:04:11.084Z,26.60
2019-04-05T03:05:11.073Z,25.60
2019-04-05T03:06:11.066Z,24.20
2019-04-05T03:07:11.049Z,21.70
2019-04-05T03:08:11.040Z,23.80
2019-04-05T03:09:11.028Z,23.30
2019-04-05T03:10:11.029Z,27.00
2019-04-05T03:11:11.006Z,29.70
2019-04-05T03:12:10.991Z,25.00
2019-04-05T03:13:11.004Z,24.50
2019-04-05T03:14:10.980Z,24.10
2019-04-05T03:15:10.979Z,25.50
2019-04-05T03:16:10.947Z,24.60
2019-04-05T03:17:10.937Z,25.90
2019-04-05T03:18:10.936Z,25.70
2019-04-05T03:19:10.917Z,24.20
2019-04-05T03:20:10.928Z,24.40
2019-04-05T03:21:10.892Z,24.50
2019-04-05T03:22:10.890Z,23.60
2019-04-05T03:23:10.876Z,26.20
2019-04-05T03:24:10.864Z,24.80
2019-04-05T03:25:10.875Z,25.10
2019-04-05T03:26:10.869Z,24.80
2019-04-05T03:27:10.832Z,26.70
2019-04-05T03:28:10.820Z,26.20
2019-04-05T03:29:10.823Z,26.20
2019-04-05T03:30:10.803Z,23.00
2019-04-05T03:31:10.808Z,34.70
2019-04-05T03:32:10.778Z,24.50
2019-04-05T03:33:10.762Z,25.70
2019-04-05T03:34:10.755Z,27.40
2019-04-05T03:35:10.781Z,29.10
2019-04-05T03:36:10.737Z,25.60
2019-04-05T03:37:10.723Z,27.30
2019-04-05T03:38:10.717Z,26.20
2019-04-05T03:39:10.695Z,26.00
2019-04-05T03:40:10.685Z,26.60
2019-04-05T03:41:10.715Z,25.20
2019-04-05T03:42:10.664Z,26.90
2019-04-05T03:43:10.657Z,26.50
2019-04-05T03:44:10.650Z,26.10
2019-04-05T03:45:10.636Z,27.40
2019-04-05T03:46:10.653Z,25.80
2019-04-05T03:47:10.657Z,26.70
2019-04-05T03:48:10.594Z,22.70
2019-04-05T03:49:10.604Z,28.10
2019-04-05T03:50:10.580Z,29.60
2019-04-05T03:51:10.565Z,25.20
2019-04-05T03:52:10.556Z,24.30
2019-04-05T03:53:10.559Z,25.20
2019-04-05T03:54:10.529Z,26.90
2019-04-05T03:55:10.522Z,29.80
2019-04-05T03:56:10.510Z,25.90
2019-04-05T03:57:10.499Z,27.00
2019-04-05T03:58:10.503Z,25.40
2019-04-05T03:59:10.473Z,23.80
2019-04-05T04:00:10.470Z,22.40
2019-04-05T04:01:10.455Z,26.40
2019-04-05T04:02:10.446Z,24.40
2019-04-05T04:03:10.444Z,24.50
2019-04-05T04:04:10.446Z,28.10
2019-04-05T04:05:10.421Z,26.10
2019-04-05T04:06:10.414Z,28.60
2019-04-05T04:07:10.389Z,26.20
2019-04-05T04:08:10.391Z,27.50
2019-04-05T04:09:10.367Z,27.50
2019-04-05T04:10:10.357Z,23.60
2019-04-05T04:11:10.349Z,26.30
2019-04-05T04:12:10.341Z,27.40
2019-04-05T04:13:10.321Z,28.40
2019-04-05T04:14:10.327Z,31.30
2019-04-05T04:15:13.547Z,26.00
2019-04-05T04:16:10.291Z,26.30
2019-04-05T04:17:12.738Z,24.90
2019-04-05T04:18:10.387Z,24.70
2019-04-05T04:19:10.252Z,27.40
2019-04-05T04:20:10.251Z,25.50
2019-04-05T04:21:10.239Z,29.40
2019-04-05T04:22:10.283Z,28.10
2019-04-05T04:23:10.206Z,27.80
2019-04-05T04:24:10.220Z,24.10
2019-04-05T04:25:10.210Z,29.50
2019-04-05T04:26:10.171Z,27.30
2019-04-05T04:27:10.176Z,25.20
2019-04-05T04:28:10.153Z,24.90
2019-04-05T04:29:10.150Z,26.20
2019-04-05T04:30:10.134Z,25.50
2019-04-05T04:31:10.124Z,26.30
2019-04-05T04:32:10.110Z,34.20
2019-04-05T04:33:10.100Z,24.60
2019-04-05T04:34:10.098Z,26.90
2019-04-05T04:35:10.072Z,27.60
2019-04-05T04:36:13.139Z,27.90
2019-04-05T04:37:10.050Z,25.00
2019-04-05T04:38:10.073Z,26.00
2019-04-05T04:39:10.036Z,24.40
2019-04-05T04:40:10.027Z,26.30
2019-04-05T04:41:10.009Z,25.40
2019-04-05T04:42:10.003Z,23.20
2019-04-05T04:43:09.989Z,26.70
2019-04-05T04:44:09.979Z,27.10
2019-04-05T04:45:12.485Z,23.30
2019-04-05T04:46:09.955Z,27.30
2019-04-05T04:47:09.946Z,28.80
2019-04-05T04:48:09.937Z,26.80
2019-04-05T04:49:09.925Z,27.60
2019-04-05T04:50:09.974Z,29.80
2019-04-05T04:51:09.897Z,27.30
2019-04-05T04:52:09.889Z,26.00
2019-04-05T04:53:09.878Z,29.60
2019-04-05T04:54:09.875Z,26.60
2019-04-05T04:55:09.856Z,25.30
2019-04-05T04:56:09.847Z,28.40
2019-04-05T04:57:09.829Z,26.20
2019-04-05T04:58:09.821Z,26.60
2019-04-05T04:59:09.812Z,27.30
2019-04-05T05:00:09.807Z,29.00
2019-04-05T05:01:09.798Z,28.90
2019-04-05T05:02:09.773Z,29.00
2019-04-05T05:03:09.760Z,28.10
2019-04-05T05:04:09.756Z,29.30
2019-04-05T05:05:09.760Z,27.70
2019-04-05T05:06:09.752Z,26.70
2019-04-05T05:07:09.717Z,25.90
2019-04-05T05:08:09.711Z,28.00
2019-04-05T05:09:09.703Z,35.20
2019-04-05T05:10:09.692Z,26.90
2019-04-05T05:11:14.725Z,29.30
2019-04-05T05:12:10.699Z,29.00
2019-04-05T05:13:09.651Z,27.60
2019-04-05T05:14:09.651Z,28.10
2019-04-05T05:15:09.629Z,31.60
2019-04-05T05:16:09.622Z,30.00
2019-04-05T05:17:09.609Z,31.10
2019-04-05T05:18:09.608Z,29.60
2019-04-05T05:19:09.583Z,30.60
2019-04-05T05:20:09.584Z,31.80
2019-04-05T05:21:09.571Z,31.30
2019-04-05T05:22:09.554Z,29.60
2019-04-05T05:23:09.537Z,27.50
2019-04-05T05:24:09.534Z,30.00
2019-04-05T05:25:09.517Z,30.20
2019-04-05T05:26:09.522Z,26.70
2019-04-05T05:27:09.497Z,30.60
2019-04-05T05:28:09.485Z,31.20
2019-04-05T05:29:09.476Z,27.30
2019-04-05T05:30:09.467Z,30.10
2019-04-05T05:31:09.466Z,29.90
2019-04-05T05:32:09.872Z,30.00
2019-04-05T05:33:09.451Z,27.00
2019-04-05T05:34:09.422Z,30.00
2019-04-05T05:35:09.418Z,29.30
2019-04-05T05:36:10.679Z,29.60
2019-04-05T05:37:09.411Z,26.80
2019-04-05T05:38:09.375Z,32.00
2019-04-05T05:39:09.375Z,31.50
2019-04-05T05:40:09.354Z,28.50
2019-04-05T05:41:09.350Z,29.70
2019-04-05T05:42:09.389Z,27.10
2019-04-05T05:43:09.326Z,29.50
2019-04-05T05:44:09.311Z,27.70
2019-04-05T05:45:09.339Z,31.10
2019-04-05T05:46:09.285Z,35.50
2019-04-05T05:47:09.301Z,37.20
2019-04-05T05:48:09.277Z,41.60
2019-04-05T05:49:09.265Z,42.00
2019-04-05T05:50:09.244Z,41.80
2019-04-05T05:51:09.231Z,44.30
2019-04-05T05:52:09.232Z,48.10
2019-04-05T05:53:09.219Z,46.40
2019-04-05T05:54:09.198Z,47.40
2019-04-05T05:55:09.188Z,54.80
2019-04-05T05:56:09.179Z,55.60
2019-04-05T05:57:09.185Z,58.10
2019-04-05T05:58:09.157Z,59.10
2019-04-05T05:59:09.159Z,58.10
2019-04-05T06:00:09.174Z,59.60
2019-04-05T06:01:09.143Z,65.80
2019-04-05T06:02:09.140Z,62.40
2019-04-05T06:03:11.344Z,66.20
2019-04-05T06:04:09.096Z,68.60
2019-04-05T06:05:09.080Z,68.90
2019-04-05T06:06:09.081Z,73.70
2019-04-05T06:07:09.066Z,73.30
2019-04-05T06:08:09.051Z,76.10
2019-04-05T06:09:09.034Z,77.10
2019-04-05T06:10:09.028Z,71.30
2019-04-05T06:11:09.011Z,76.30
2019-04-05T06:12:09.016Z,79.30
2019-04-05T06:13:09.020Z,80.70
2019-04-05T06:14:08.982Z,86.60
2019-04-05T06:15:08.970Z,99.60
2019-04-05T06:16:08.969Z,91.80
2019-04-05T06:17:08.955Z,99.30
2019-04-05T06:18:12.040Z,102.80
2019-04-05T06:19:08.929Z,101.10
2019-04-05T06:20:08.916Z,110.70
2019-04-05T06:21:08.904Z,97.90
2019-04-05T06:22:08.899Z,107.90
2019-04-05T06:23:08.888Z,112.60
2019-04-05T06:24:08.887Z,99.80
2019-04-05T06:25:08.857Z,113.70
2019-04-05T06:26:08.877Z,114.20
2019-04-05T06:27:08.848Z,141.10
2019-04-05T06:28:08.826Z,126.40
2019-04-05T06:29:08.811Z,145.10
2019-04-05T06:30:08.799Z,140.10
2019-04-05T06:31:08.793Z,139.70
2019-04-05T06:32:08.781Z,131.20
2019-04-05T06:33:08.777Z,130.90
2019-04-05T06:34:08.756Z,122.70
2019-04-05T06:35:08.751Z,188.10
2019-04-05T06:36:08.738Z,136.20
2019-04-05T06:37:08.738Z,122.20
2019-04-05T06:38:08.716Z,136.50
2019-04-05T06:39:08.701Z,151.00
2019-04-05T06:40:08.693Z,163.00
2019-04-05T06:41:08.687Z,166.20
2019-04-05T06:42:08.688Z,143.60
2019-04-05T06:43:08.656Z,206.40
2019-04-05T06:44:08.653Z,189.20
2019-04-05T06:45:08.634Z,152.50
2019-04-05T06:46:08.630Z,168.50
2019-04-05T06:47:08.642Z,199.50
2019-04-05T06:48:18.988Z,159.50
2019-04-05T06:49:09.593Z,221.70
2019-04-05T06:50:08.584Z,212.50
2019-04-05T06:51:08.572Z,171.10
2019-04-05T06:52:08.556Z,150.70
2019-04-05T06:53:08.563Z,148.20
2019-04-05T06:54:08.548Z,137.50
2019-04-05T06:55:08.525Z,161.50
2019-04-05T06:56:08.518Z,139.70
2019-04-05T06:57:08.513Z,166.20
2019-04-05T06:58:10.310Z,146.00
2019-04-05T06:59:08.482Z,160.40
2019-04-05T07:00:08.472Z,170.40
2019-04-05T07:01:08.461Z,136.30
2019-04-05T07:02:08.447Z,167.00
2019-04-05T07:03:08.441Z,202.20
2019-04-05T07:04:08.444Z,165.70
2019-04-05T07:05:08.468Z,140.70
2019-04-05T07:06:08.407Z,138.30
2019-04-05T07:07:08.395Z,146.50
2019-04-05T07:08:08.384Z,157.20
2019-04-05T07:09:08.368Z,158.10
2019-04-05T07:10:08.359Z,171.70
2019-04-05T07:11:08.370Z,203.30
2019-04-05T07:12:08.388Z,179.40
2019-04-05T07:13:08.432Z,192.40
2019-04-05T07:14:08.324Z,180.20
2019-04-05T07:15:08.347Z,189.70
2019-04-05T07:16:10.998Z,177.00
2019-04-05T07:17:08.280Z,168.40
2019-04-05T07:18:08.270Z,204.80
2019-04-05T07:19:08.262Z,168.60
2019-04-05T07:20:08.250Z,156.70
2019-04-05T07:21:08.244Z,159.00
2019-04-05T07:22:08.229Z,165.60
2019-04-05T07:23:08.214Z,156.30
2019-04-05T07:24:08.201Z,159.20
2019-04-05T07:25:08.203Z,149.40
2019-04-05T07:26:08.183Z,150.70
2019-04-05T07:27:08.170Z,142.30
2019-04-05T07:28:08.159Z,146.30
2019-04-05T07:29:08.158Z,138.00
2019-04-05T07:30:08.141Z,132.40
2019-04-05T07:31:08.301Z,135.80
2019-04-05T07:32:08.129Z,154.30
2019-04-05T07:33:08.108Z,147.70
2019-04-05T07:34:08.099Z,150.80
2019-04-05T07:35:08.079Z,149.00
2019-04-05T07:36:08.075Z,138.10
2019-04-05T07:37:08.065Z,163.80
2019-04-05T07:38:09.782Z,157.50
2019-04-05T07:39:08.040Z,163.80
2019-04-05T07:40:08.040Z,145.60
2019-04-05T07:41:16.217Z,137.10
2019-04-05T07:42:08.012Z,131.70
2019-04-05T07:43:08.046Z,132.50
2019-04-05T07:44:07.985Z,131.00
2019-04-05T07:45:07.968Z,136.80
2019-04-05T07:46:08.011Z,142.20
2019-04-05T07:47:07.998Z,148.10
2019-04-05T07:48:07.939Z,156.60
2019-04-05T07:49:07.929Z,153.80
2019-04-05T07:50:07.918Z,160.70
2019-04-05T07:51:07.911Z,166.70
2019-04-05T07:52:07.893Z,182.10
2019-04-05T07:53:07.889Z,160.00
2019-04-05T07:54:07.874Z,170.80
2019-04-05T07:55:07.866Z,176.10
2019-04-05T07:56:07.854Z,150.70
2019-04-05T07:57:07.835Z,188.00
2019-04-05T07:58:07.833Z,162.20
2019-04-05T07:59:07.816Z,156.90
2019-04-05T08:00:07.807Z,144.00
2019-04-05T08:01:07.799Z,144.30
2019-04-05T08:02:07.786Z,165.40
2019-04-05T08:03:07.822Z,164.50
2019-04-05T08:04:07.763Z,161.00
2019-04-05T08:05:07.747Z,160.30
2019-04-05T08:06:07.742Z,181.10
2019-04-05T08:07:07.732Z,165.90
2019-04-05T08:08:07.716Z,178.80
2019-04-05T08:09:07.714Z,173.40
2019-04-05T08:10:07.699Z,169.10
2019-04-05T08:11:07.683Z,172.20
2019-04-05T08:12:07.673Z,167.00
2019-04-05T08:13:07.659Z,172.40
2019-04-05T08:14:07.664Z,160.40
2019-04-05T08:15:07.640Z,173.60
2019-04-05T08:16:07.629Z,167.30
2019-04-05T08:17:07.617Z,168.20
2019-04-05T08:18:07.611Z,171.70
2019-04-05T08:19:07.609Z,160.60
2019-04-05T08:20:07.581Z,151.90
2019-04-05T08:21:07.568Z,161.30
2019-04-05T08:22:07.557Z,144.20
2019-04-05T08:23:07.551Z,145.70
2019-04-05T08:24:07.541Z,155.00
2019-04-05T08:25:07.539Z,143.50
2019-04-05T08:26:07.515Z,154.90
2019-04-05T08:27:07.503Z,157.90
2019-04-05T08:28:07.491Z,149.00
2019-04-05T08:29:07.486Z,155.40
2019-04-05T08:30:07.484Z,153.80
2019-04-05T08:31:10.831Z,150.20
2019-04-05T08:32:14.284Z,141.30
2019-04-05T08:33:08.438Z,151.90
2019-04-05T08:34:07.429Z,150.40
2019-04-05T08:35:07.425Z,168.80
2019-04-05T08:36:07.421Z,163.60
2019-04-05T08:37:07.395Z,159.20
2019-04-05T08:38:07.387Z,158.50
2019-04-05T08:39:07.370Z,141.40
2019-04-05T08:40:07.362Z,145.90
2019-04-05T08:41:07.359Z,152.70
2019-04-05T08:42:07.334Z,160.50
2019-04-05T08:43:07.332Z,156.80
2019-04-05T08:44:07.314Z,154.50
2019-04-05T08:45:07.302Z,151.30
2019-04-05T08:46:07.306Z,144.40
2019-04-05T08:47:07.288Z,145.80
2019-04-05T08:48:07.282Z,150.90
2019-04-05T08:49:10.825Z,143.30
2019-04-05T08:50:07.252Z,141.40
2019-04-05T08:51:07.243Z,146.40
2019-04-05T08:52:07.259Z,136.80
2019-04-05T08:53:07.224Z,146.50
2019-04-05T08:54:07.209Z,141.20
2019-04-05T08:55:07.197Z,140.20
2019-04-05T08:56:07.188Z,139.30
2019-04-05T08:57:07.218Z,138.20
2019-04-05T08:58:07.172Z,137.70
2019-04-05T08:59:07.152Z,133.70
2019-04-05T09:00:07.168Z,137.40
2019-04-05T09:01:07.139Z,138.10
2019-04-05T09:02:07.122Z,139.00
2019-04-05T09:03:07.120Z,137.20
2019-04-05T09:04:07.158Z,141.80
2019-04-05T09:05:07.089Z,144.60
2019-04-05T09:06:07.080Z,135.20
2019-04-05T09:07:07.062Z,137.00
2019-04-05T09:08:07.073Z,134.80
2019-04-05T09:09:07.042Z,128.60
2019-04-05T09:10:07.051Z,122.80
2019-04-05T09:11:07.020Z,124.90
2019-04-05T09:12:07.005Z,132.00
2019-04-05T09:13:06.999Z,134.40
2019-04-05T09:14:06.997Z,136.50
2019-04-05T09:15:06.976Z,137.50
2019-04-05T09:16:06.964Z,136.90
2019-04-05T09:17:06.951Z,132.60
2019-04-05T09:18:06.943Z,142.70
2019-04-05T09:19:06.935Z,143.70
2019-04-05T09:20:06.923Z,150.70
2019-04-05T09:21:09.832Z,143.90
2019-04-05T09:22:06.890Z,145.70
2019-04-05T09:23:06.886Z,141.10
2019-04-05T09:24:06.868Z,142.10
2019-04-05T09:25:06.863Z,137.90
2019-04-05T09:26:06.851Z,138.70
2019-04-05T09:27:06.837Z,150.90
2019-04-05T09:28:06.831Z,139.80
2019-04-05T09:29:09.100Z,144.30
2019-04-05T09:30:06.816Z,143.80
2019-04-05T09:31:06.800Z,144.50
2019-04-05T09:32:06.790Z,141.40
2019-04-05T09:33:06.776Z,137.40
2019-04-05T09:34:06.764Z,142.10
2019-04-05T09:35:06.754Z,139.80
2019-04-05T09:36:06.751Z,144.20
2019-04-05T09:37:06.732Z,163.30
2019-04-05T09:38:06.714Z,157.40
2019-04-05T09:39:06.707Z,162.30
2019-04-05T09:40:06.752Z,155.20
2019-04-05T09:41:06.681Z,147.60
2019-04-05T09:42:06.676Z,147.70
2019-04-05T09:43:06.670Z,144.90
2019-04-05T09:44:06.654Z,142.50
2019-04-05T09:45:06.707Z,138.30
2019-04-05T09:46:06.640Z,136.70
2019-04-05T09:47:06.620Z,147.50
2019-04-05T09:48:06.616Z,145.80
2019-04-05T09:49:06.591Z,136.60
2019-04-05T09:50:06.580Z,135.60
2019-04-05T09:51:07.295Z,133.60
2019-04-05T09:52:06.565Z,135.50
2019-04-05T09:53:06.557Z,137.00
2019-04-05T09:54:06.541Z,131.80
2019-04-05T09:55:06.528Z,133.00
2019-04-05T09:56:06.701Z,131.60
2019-04-05T09:57:06.505Z,134.50
2019-04-05T09:58:06.489Z,142.30
2019-04-05T09:59:06.480Z,136.80
2019-04-05T10:00:06.466Z,122.90
2019-04-05T10:01:06.455Z,129.70
2019-04-05T10:02:06.459Z,135.30
2019-04-05T10:03:06.437Z,136.10
2019-04-05T10:04:06.443Z,145.20
2019-04-05T10:05:06.415Z,146.80
2019-04-05T10:06:06.396Z,149.90
2019-04-05T10:07:06.386Z,144.30
2019-04-05T10:08:06.383Z,144.40
2019-04-05T10:09:06.401Z,144.60
2019-04-05T10:10:06.356Z,138.00
2019-04-05T10:11:06.345Z,140.20
2019-04-05T10:12:06.328Z,133.40
2019-04-05T10:13:06.324Z,132.60
2019-04-05T10:14:06.305Z,135.10
2019-04-05T10:15:06.309Z,130.90
2019-04-05T10:16:06.282Z,131.40
2019-04-05T10:17:06.275Z,129.10
2019-04-05T10:18:06.277Z,127.50
2019-04-05T10:19:06.257Z,136.70
2019-04-05T10:20:06.251Z,130.00
2019-04-05T10:21:06.233Z,131.00
2019-04-05T10:22:06.215Z,129.30
2019-04-05T10:23:06.202Z,126.90
2019-04-05T10:24:06.199Z,128.50
2019-04-05T10:25:06.231Z,132.20
2019-04-05T10:26:06.168Z,138.10
2019-04-05T10:27:06.157Z,138.70
2019-04-05T10:28:06.145Z,129.40
2019-04-05T10:29:06.140Z,135.60
2019-04-05T10:30:06.138Z,136.10
2019-04-05T10:31:06.137Z,133.60
2019-04-05T10:32:06.105Z,134.00
2019-04-05T10:33:06.097Z,138.70
2019-04-05T10:34:06.077Z,130.80
2019-04-05T10:35:06.066Z,134.60
2019-04-05T10:36:06.056Z,131.20
2019-04-05T10:37:06.054Z,137.60
2019-04-05T10:38:06.041Z,133.40
2019-04-05T10:39:06.027Z,131.80
2019-04-05T10:40:06.025Z,137.50
2019-04-05T10:41:06.002Z,128.60
2019-04-05T10:42:06.012Z,129.40
2019-04-05T10:43:05.985Z,124.60
2019-04-05T10:44:05.972Z,122.00
2019-04-05T10:45:05.956Z,125.70
2019-04-05T10:46:05.960Z,122.60
2019-04-05T10:47:05.934Z,123.20
2019-04-05T10:48:05.937Z,125.10
2019-04-05T10:49:05.911Z,125.50
2019-04-05T10:50:05.916Z,116.30
2019-04-05T10:51:05.897Z,124.10
2019-04-05T10:52:05.877Z,131.10
2019-04-05T10:53:05.933Z,117.80
2019-04-05T10:54:05.856Z,122.10
2019-04-05T10:55:05.847Z,115.20
2019-04-05T10:56:05.833Z,117.30
2019-04-05T10:57:05.823Z,121.10
2019-04-05T10:58:05.819Z,120.70
2019-04-05T10:59:05.816Z,121.80
2019-04-05T11:00:05.795Z,112.60
2019-04-05T11:01:05.780Z,108.30
2019-04-05T11:02:05.767Z,108.70
2019-04-05T11:03:05.769Z,110.50
2019-04-05T11:04:05.744Z,105.40
2019-04-05T11:05:05.733Z,109.10
2019-04-05T11:06:05.738Z,104.30
2019-04-05T11:07:05.717Z,98.80
2019-04-05T11:08:05.718Z,113.30
2019-04-05T11:09:05.692Z,111.00
2019-04-05T11:10:05.715Z,103.40
2019-04-05T11:11:05.712Z,101.00
2019-04-05T11:12:08.474Z,102.20
2019-04-05T11:13:05.644Z,102.10
2019-04-05T11:14:13.598Z,102.10
2019-04-05T11:15:06.621Z,102.70
2019-04-05T11:16:05.617Z,105.40
2019-04-05T11:17:05.611Z,100.50
2019-04-05T11:18:05.591Z,94.80
2019-04-05T11:19:05.577Z,98.80
2019-04-05T11:20:20.144Z,98.90
2019-04-05T11:21:06.555Z,99.90
2019-04-05T11:22:05.549Z,93.40
2019-04-05T11:23:05.538Z,96.40
2019-04-05T11:24:05.522Z,90.90
2019-04-05T11:25:05.517Z,94.70
2019-04-05T11:26:05.515Z,99.30
2019-04-05T11:27:06.826Z,97.20
2019-04-05T11:28:05.482Z,92.10
2019-04-05T11:29:05.472Z,98.90
2019-04-05T11:30:05.459Z,89.00
2019-04-05T11:31:05.484Z,89.20
2019-04-05T11:32:05.433Z,93.80
2019-04-05T11:33:05.426Z,86.40
2019-04-05T11:34:05.416Z,87.80
2019-04-05T11:35:05.406Z,86.60
2019-04-05T11:36:05.393Z,89.30
2019-04-05T11:37:05.387Z,91.00
2019-04-05T11:38:05.374Z,94.10
2019-04-05T11:39:05.522Z,87.80
2019-04-05T11:40:05.355Z,89.00
2019-04-05T11:41:05.338Z,84.60
2019-04-05T11:42:05.349Z,86.20
2019-04-05T11:43:05.317Z,86.90
2019-04-05T11:44:05.304Z,87.10
2019-04-05T11:45:05.288Z,88.40
2019-04-05T11:46:05.277Z,86.40
2019-04-05T11:47:05.265Z,85.70
2019-04-05T11:48:05.269Z,85.00
2019-04-05T11:49:05.246Z,83.90
2019-04-05T11:50:05.238Z,83.70
2019-04-05T11:51:05.231Z,87.00
2019-04-05T11:52:05.217Z,87.00
2019-04-05T11:53:05.229Z,86.60
2019-04-05T11:54:05.192Z,87.20
2019-04-05T11:55:05.176Z,83.10
2019-04-05T11:56:14.653Z,82.30
2019-04-05T11:57:06.154Z,81.00
2019-04-05T11:58:05.143Z,87.20
2019-04-05T11:59:05.147Z,81.20
2019-04-05T12:00:05.128Z,74.40
2019-04-05T12:01:05.118Z,76.10
2019-04-05T12:02:05.097Z,73.30
2019-04-05T12:03:05.094Z,75.10
2019-04-05T12:04:05.089Z,78.10
2019-04-05T12:05:05.116Z,72.40
2019-04-05T12:06:05.067Z,81.40
2019-04-05T12:07:05.046Z,80.50
2019-04-05T12:08:05.036Z,72.50
2019-04-05T12:09:05.034Z,72.60
2019-04-05T12:10:13.073Z,71.30
2019-04-05T12:11:05.001Z,72.40
2019-04-05T12:12:04.993Z,75.10
2019-04-05T12:13:04.990Z,72.70
2019-04-05T12:14:05.004Z,76.20
2019-04-05T12:15:06.482Z,72.10
2019-04-05T12:16:06.057Z,77.00
2019-04-05T12:17:05.680Z,68.90
2019-04-05T12:18:05.325Z,74.20
2019-04-05T12:19:05.498Z,73.60
2019-04-05T12:20:04.921Z,70.90
2019-04-05T12:21:05.718Z,74.50
2019-04-05T12:22:05.842Z,71.60
2019-04-05T12:23:04.877Z,69.30
2019-04-05T12:24:04.857Z,67.50
2019-04-05T12:25:04.878Z,67.00
2019-04-05T12:26:05.048Z,65.80
2019-04-05T12:27:05.633Z,66.50
2019-04-05T12:28:06.932Z,68.50
2019-04-05T12:29:04.802Z,71.50
2019-04-05T12:30:04.793Z,64.70
2019-04-05T12:31:04.795Z,64.90
2019-04-05T12:32:04.775Z,66.30
2019-04-05T12:33:13.945Z,69.50
2019-04-05T12:34:05.752Z,65.90
2019-04-05T12:35:04.746Z,66.20
2019-04-05T12:36:04.730Z,66.80
2019-04-05T12:37:04.726Z,66.40
2019-04-05T12:38:07.014Z,62.30
2019-04-05T12:39:08.050Z,62.60
2019-04-05T12:40:05.242Z,63.80
2019-04-05T12:41:04.680Z,64.80
2019-04-05T12:42:04.659Z,68.80
2019-04-05T12:43:04.649Z,66.20